OJAI/AMM METAR and TAF weather

Enter ICAO airport designator
Station Type Date Time Source
OJAI METAR 2021/10/24 21:00 UTC NOAA

OJAI 242100Z 03002KT 6000 NSC 14/09 Q1019 NOSIG


Station Type Date Time Source
OJAI Decoded METAR 2021/10/24 21:00 UTC NOAA

Queen Alia Airport, Jordan (OJAI) 31-40N 035-58E
Oct 24, 2021 - 05:00 PM EDT / 2021.10.24 2100 UTC
Wind: from the NNE (030 degrees) at 2 MPH (2 KT):0
Visibility: 3 mile(s):0
Temperature: 57 F (14 C)
Dew Point: 48 F (9 C)
Relative Humidity: 71%
Pressure (altimeter): 30.09 in. Hg (1019 hPa)
ob: OJAI 242100Z 03002KT 6000 NSC 14/09 Q1019 NOSIG
cycle: 21

Station Type Date Time Source
OJAI TAF 2021/10/24 18:13 UTC NOAA

TAF OJAI 241700Z 2418/2524 29008KT 5000 HZ NSC PROB30 2502/2506 VRB02KT 2000 BR

Example: see airport list